Time;durP1;ratioP1;P1;durP2;ratioP2;P2;SDS_P1;SDS_P2;PMS_P1;PMS_P2;Temp;Humidity;BMP_temperature;BMP_pressure;BME280_temperature;BME280_humidity;BME280_pressure;Samples;Min_cycle;Max_cycle;Signal;HPM_P1;HPM_P2
2021/12/02 00:01:25;;;;;;;2.67;0.90;;;0.80;99.90;;;;;;4851384;29;20049;-65
2021/12/02 00:03:54;;;;;;;0.80;0.63;;;0.80;99.90;;;;;;4846313;29;20065;-65
2021/12/02 00:06:22;;;;;;;1.77;0.80;;;0.80;99.90;;;;;;4839696;29;20056;-65
2021/12/02 00:08:51;;;;;;;3.75;0.90;;;0.80;99.90;;;;;;4841031;29;20054;-65
2021/12/02 00:11:19;;;;;;;0.95;0.60;;;0.80;99.90;;;;;;4838529;29;20046;-65
2021/12/02 00:22:01;;;;;;;0.63;0.45;;;0.80;99.90;;;;;;4844334;29;20050;-64
2021/12/02 00:24:34;;;;;;;3.60;0.57;;;0.80;99.90;;;;;;4836580;29;20050;-67
2021/12/02 00:27:05;;;;;;;2.55;0.75;;;0.80;99.90;;;;;;4837730;29;20148;-65
2021/12/02 00:29:34;;;;;;;0.75;0.47;;;0.80;99.90;;;;;;4853278;29;20065;-67
2021/12/02 00:32:08;;;;;;;0.60;0.40;;;0.80;99.90;;;;;;4842246;29;20054;-65
2021/12/02 00:34:43;;;;;;;0.82;0.30;;;0.80;99.90;;;;;;4840359;29;20069;-65
2021/12/02 00:37:11;;;;;;;2.47;1.05;;;0.80;99.90;;;;;;4840348;29;20057;-65
2021/12/02 00:39:39;;;;;;;1.20;0.50;;;0.80;99.90;;;;;;4842279;29;20405;-64
2021/12/02 00:42:08;;;;;;;0.75;0.30;;;0.80;99.90;;;;;;4841246;29;20050;-67
2021/12/02 00:44:37;;;;;;;1.30;0.30;;;0.80;99.90;;;;;;4850926;29;20049;-64
2021/12/02 00:47:07;;;;;;;2.40;0.38;;;0.80;99.90;;;;;;4839504;29;20313;-68
2021/12/02 00:49:34;;;;;;;3.30;0.63;;;0.80;99.90;;;;;;4840794;29;20050;-64
2021/12/02 00:52:03;;;;;;;0.70;0.43;;;0.70;99.90;;;;;;4838708;29;20065;-73
2021/12/02 00:54:31;;;;;;;2.47;0.60;;;0.80;99.90;;;;;;4840302;29;20050;-65
2021/12/02 00:57:02;;;;;;;0.95;0.60;;;0.70;99.90;;;;;;4837896;29;20062;-64
2021/12/02 00:59:30;;;;;;;1.45;0.38;;;0.70;99.90;;;;;;4843884;29;20065;-67
2021/12/02 01:01:58;;;;;;;1.13;0.52;;;0.80;99.90;;;;;;4838413;29;20061;-64
2021/12/02 01:04:26;;;;;;;2.20;0.47;;;0.70;99.90;;;;;;4838944;29;20053;-71
2021/12/02 01:06:54;;;;;;;2.92;0.60;;;0.70;99.90;;;;;;4838958;29;20050;-67
2021/12/02 01:09:22;;;;;;;1.10;0.60;;;0.70;99.90;;;;;;4840212;29;20046;-65
2021/12/02 01:11:49;;;;;;;0.82;0.50;;;0.70;99.90;;;;;;4842774;29;20061;-64
2021/12/02 01:14:16;;;;;;;2.47;0.57;;;0.70;99.90;;;;;;4874003;29;20465;-65
2021/12/02 01:16:43;;;;;;;0.40;0.40;;;0.70;99.90;;;;;;4840112;29;20050;-65
2021/12/02 01:19:11;;;;;;;1.88;0.50;;;0.80;99.90;;;;;;4841435;29;20052;-67
2021/12/02 01:21:42;;;;;;;1.13;0.35;;;0.70;99.90;;;;;;4849702;29;20056;-66
2021/12/02 01:24:14;;;;;;;6.13;0.60;;;0.70;99.90;;;;;;4842423;29;20144;-64
2021/12/02 01:26:51;;;;;;;2.58;1.85;;;0.70;99.90;;;;;;4842455;29;20058;-64
2021/12/02 01:29:21;;;;;;;0.52;0.40;;;0.70;99.90;;;;;;4841675;29;20061;-67
2021/12/02 01:31:54;;;;;;;0.73;0.40;;;0.70;99.90;;;;;;4852590;29;20409;-66
2021/12/02 01:34:24;;;;;;;3.03;0.57;;;0.70;99.90;;;;;;4840879;29;20405;-70
2021/12/02 01:36:53;;;;;;;0.40;0.40;;;0.70;99.90;;;;;;4839103;29;20054;-64
2021/12/02 01:39:20;;;;;;;5.90;0.68;;;0.70;99.90;;;;;;4843326;29;20064;-65
2021/12/02 01:41:55;;;;;;;2.33;0.30;;;0.70;99.90;;;;;;4839594;29;20057;-65
2021/12/02 01:44:24;;;;;;;1.13;0.40;;;0.70;99.90;;;;;;4838535;29;20520;-66
2021/12/02 01:46:57;;;;;;;0.32;0.30;;;0.70;99.90;;;;;;4840784;29;20049;-65
2021/12/02 01:49:32;;;;;;;3.67;0.28;;;0.70;99.90;;;;;;4840616;29;20046;-64
2021/12/02 01:52:01;;;;;;;4.53;1.48;;;0.70;99.90;;;;;;4842572;29;20064;-69
2021/12/02 01:54:28;;;;;;;4.57;0.43;;;0.70;99.90;;;;;;4839749;29;20050;-65
2021/12/02 01:57:05;;;;;;;8.63;0.90;;;0.70;99.90;;;;;;4840390;29;20421;-69
2021/12/02 01:59:34;;;;;;;1.25;0.43;;;0.70;99.90;;;;;;4837917;29;20061;-65
2021/12/02 02:02:05;;;;;;;0.90;0.47;;;0.70;99.90;;;;;;4841712;29;20132;-64
2021/12/02 02:04:33;;;;;;;0.63;0.57;;;0.60;99.90;;;;;;4835659;29;20058;-67
2021/12/02 02:07:09;;;;;;;2.53;0.50;;;0.70;99.90;;;;;;4839104;29;20057;-72
2021/12/02 02:09:36;;;;;;;1.85;0.70;;;0.60;99.90;;;;;;4837924;29;20073;-67
2021/12/02 02:12:06;;;;;;;1.00;0.43;;;0.60;99.90;;;;;;4840003;29;20069;-69
2021/12/02 02:14:33;;;;;;;1.52;0.38;;;0.60;99.90;;;;;;4836461;29;20489;-64
2021/12/02 02:17:06;;;;;;;2.63;0.50;;;0.70;99.90;;;;;;4838040;29;20136;-66
2021/12/02 02:19:34;;;;;;;0.95;0.50;;;0.60;99.90;;;;;;4850064;29;20078;-66
2021/12/02 02:22:02;;;;;;;1.48;0.50;;;0.60;99.90;;;;;;4843602;29;20058;-65
2021/12/02 02:24:30;;;;;;;0.30;0.28;;;0.60;99.90;;;;;;4836092;29;20058;-70
2021/12/02 02:26:57;;;;;;;0.52;0.30;;;0.60;99.90;;;;;;4837425;29;20049;-65
2021/12/02 02:29:24;;;;;;;0.45;0.45;;;0.60;99.90;;;;;;4837582;29;20062;-69
2021/12/02 02:31:51;;;;;;;0.38;0.30;;;0.60;99.90;;;;;;4837314;29;20081;-61
2021/12/02 02:34:23;;;;;;;2.25;0.60;;;0.60;99.90;;;;;;4834864;29;20149;-65
2021/12/02 02:36:52;;;;;;;1.88;0.80;;;0.60;99.90;;;;;;4840414;29;20046;-66
2021/12/02 02:39:20;;;;;;;0.40;0.20;;;0.60;99.90;;;;;;4840072;29;20050;-75
2021/12/02 02:41:56;;;;;;;1.80;0.47;;;0.60;99.90;;;;;;4838472;29;20053;-66
2021/12/02 02:44:26;;;;;;;2.00;0.35;;;0.60;99.90;;;;;;4834720;29;20055;-65
2021/12/02 02:46:53;;;;;;;0.73;0.60;;;0.60;99.90;;;;;;4837393;29;20528;-65
2021/12/02 02:49:20;;;;;;;1.27;0.73;;;0.60;99.90;;;;;;4837873;29;20293;-65
2021/12/02 02:51:48;;;;;;;1.40;0.60;;;0.60;99.90;;;;;;4837488;29;20057;-66
2021/12/02 02:54:16;;;;;;;1.75;0.50;;;0.60;99.90;;;;;;4835656;29;20053;-64
2021/12/02 02:57:04;;;;;;;1.42;0.55;;;0.60;99.90;;;;;;4837546;29;20077;-68
2021/12/02 02:59:59;;;;;;;0.45;0.38;;;0.50;99.90;;;;;;4842445;29;20431;-74
2021/12/02 03:07:40;;;;;;;0.85;0.52;;;0.60;99.90;;;;;;4837160;29;20110;-65
2021/12/02 03:10:28;;;;;;;0.70;0.57;;;0.60;99.90;;;;;;4835659;29;20064;-65
2021/12/02 03:12:59;;;;;;;1.23;0.50;;;0.60;99.90;;;;;;4836855;29;20069;-72
2021/12/02 03:18:13;;;;;;;1.08;0.38;;;0.50;99.90;;;;;;4841203;29;20045;-72
2021/12/02 03:20:40;;;;;;;1.90;0.47;;;0.50;99.90;;;;;;4837393;29;20057;-64
2021/12/02 03:23:07;;;;;;;0.52;0.38;;;0.60;99.90;;;;;;4838087;29;20059;-71
2021/12/02 03:25:34;;;;;;;0.52;0.45;;;0.50;99.90;;;;;;4836609;29;20894;-69
2021/12/02 03:28:03;;;;;;;1.63;0.63;;;0.50;99.90;;;;;;4836355;29;20564;-70
2021/12/02 03:30:30;;;;;;;2.15;1.08;;;0.50;99.90;;;;;;4834918;29;20057;-70
2021/12/02 03:32:57;;;;;;;1.10;0.50;;;0.50;99.90;;;;;;4836111;29;20074;-67
2021/12/02 03:35:24;;;;;;;3.42;1.13;;;0.50;99.90;;;;;;4835684;29;20114;-70
2021/12/02 03:37:51;;;;;;;0.98;0.77;;;0.50;99.90;;;;;;4838648;29;20052;-69
2021/12/02 03:40:19;;;;;;;4.63;0.70;;;0.50;99.90;;;;;;4832906;29;20062;-70
2021/12/02 03:42:48;;;;;;;2.20;0.70;;;0.50;99.90;;;;;;4835455;29;20056;-67
2021/12/02 03:45:16;;;;;;;1.45;0.70;;;0.50;99.90;;;;;;4835255;29;20050;-65
2021/12/02 03:47:43;;;;;;;4.18;1.00;;;0.50;99.90;;;;;;4835909;29;20066;-66
2021/12/02 03:50:10;;;;;;;2.47;0.82;;;0.50;99.90;;;;;;4834833;29;20082;-68
2021/12/02 03:52:37;;;;;;;4.05;0.85;;;0.50;99.90;;;;;;4835429;29;20057;-65
2021/12/02 03:55:05;;;;;;;1.80;0.85;;;0.50;99.90;;;;;;4836103;29;20114;-68
2021/12/02 03:57:32;;;;;;;3.28;1.23;;;0.50;99.90;;;;;;4836103;29;20509;-66
2021/12/02 04:00:00;;;;;;;3.38;1.50;;;0.40;99.90;;;;;;4834934;29;20189;-71
2021/12/02 04:02:38;;;;;;;2.05;1.40;;;0.50;99.90;;;;;;4832726;29;20054;-66
2021/12/02 04:05:05;;;;;;;2.03;1.45;;;0.50;99.90;;;;;;4837576;29;20128;-69
2021/12/02 04:07:32;;;;;;;3.53;1.00;;;0.50;99.90;;;;;;4837288;29;20053;-65
2021/12/02 04:10:00;;;;;;;1.73;0.88;;;0.50;99.90;;;;;;4820087;29;20054;-67
2021/12/02 04:15:11;;;;;;;1.98;0.80;;;0.50;99.90;;;;;;4835861;29;20433;-68
2021/12/02 04:17:42;;;;;;;2.47;1.10;;;0.50;99.90;;;;;;4833937;29;20110;-68
2021/12/02 04:20:18;;;;;;;1.50;0.98;;;0.50;99.90;;;;;;4836788;29;20054;-63
2021/12/02 04:22:46;;;;;;;2.25;1.10;;;0.50;99.90;;;;;;4829175;29;20050;-64
2021/12/02 04:25:16;;;;;;;1.25;0.98;;;0.50;99.90;;;;;;4825257;29;20087;-63
2021/12/02 04:27:44;;;;;;;0.88;0.85;;;0.50;99.90;;;;;;4834277;29;20058;-65
2021/12/02 04:30:13;;;;;;;0.88;0.88;;;0.50;99.90;;;;;;4832993;29;20062;-66
2021/12/02 04:32:40;;;;;;;2.35;1.45;;;0.50;99.90;;;;;;4836480;29;20054;-64
2021/12/02 04:35:08;;;;;;;4.35;1.75;;;0.50;99.90;;;;;;4838154;29;20618;-64
2021/12/02 04:37:36;;;;;;;2.83;2.28;;;0.50;99.90;;;;;;4835938;29;20544;-65
2021/12/02 04:40:04;;;;;;;4.47;2.38;;;0.50;99.90;;;;;;4836583;29;20401;-65
2021/12/02 04:42:31;;;;;;;2.47;2.28;;;0.50;99.90;;;;;;4833700;29;20060;-65
2021/12/02 04:44:58;;;;;;;2.65;1.60;;;0.50;99.90;;;;;;4840941;29;20109;-65
2021/12/02 04:47:25;;;;;;;2.92;1.67;;;0.50;99.90;;;;;;4839505;29;20069;-65
2021/12/02 04:49:52;;;;;;;2.40;2.03;;;0.50;99.90;;;;;;4842315;29;20068;-64
2021/12/02 04:52:19;;;;;;;3.90;1.75;;;0.50;99.90;;;;;;4837065;29;20462;-67
2021/12/02 04:54:46;;;;;;;1.63;1.40;;;0.50;99.90;;;;;;4840775;29;20045;-64
2021/12/02 04:57:13;;;;;;;3.65;2.15;;;0.50;99.90;;;;;;4836900;29;20049;-65
2021/12/02 04:59:40;;;;;;;1.90;1.35;;;0.50;99.90;;;;;;4838049;29;20054;-66
2021/12/02 05:02:07;;;;;;;4.28;2.22;;;0.50;99.90;;;;;;4835313;29;20046;-65
2021/12/02 05:04:35;;;;;;;1.52;1.02;;;0.50;99.90;;;;;;4851416;29;20046;-64
2021/12/02 05:07:02;;;;;;;1.85;1.40;;;0.50;99.90;;;;;;4843548;29;20755;-71
2021/12/02 05:09:29;;;;;;;3.25;1.75;;;0.40;99.90;;;;;;4840367;29;20050;-65
2021/12/02 05:11:56;;;;;;;2.20;1.48;;;0.40;99.90;;;;;;4840658;29;20720;-71
2021/12/02 05:14:23;;;;;;;1.70;1.13;;;0.40;99.90;;;;;;4837176;29;20106;-66
2021/12/02 05:16:50;;;;;;;2.75;2.10;;;0.40;99.90;;;;;;4837646;29;20138;-64
2021/12/02 05:19:18;;;;;;;3.72;1.17;;;0.50;99.90;;;;;;4836830;29;20045;-64
2021/12/02 05:21:45;;;;;;;5.63;1.98;;;0.40;99.90;;;;;;4842652;29;20496;-67
2021/12/02 05:24:12;;;;;;;2.58;1.65;;;0.40;99.90;;;;;;4838550;29;20057;-65
2021/12/02 05:26:39;;;;;;;3.08;1.95;;;0.40;99.90;;;;;;4836695;29;20407;-65
2021/12/02 05:29:06;;;;;;;4.38;2.22;;;0.40;99.90;;;;;;4837322;29;20050;-67
2021/12/02 05:31:33;;;;;;;3.40;1.98;;;0.40;99.90;;;;;;4838427;29;20106;-67
2021/12/02 05:34:00;;;;;;;1.90;1.55;;;0.40;99.90;;;;;;4837373;29;20053;-66
2021/12/02 05:36:27;;;;;;;2.83;1.25;;;0.40;99.90;;;;;;4836699;29;20170;-69
2021/12/02 05:38:54;;;;;;;3.15;1.77;;;0.40;99.90;;;;;;4837861;29;20046;-68
2021/12/02 05:41:21;;;;;;;2.25;1.70;;;0.40;99.90;;;;;;4837537;29;20075;-68
2021/12/02 05:43:49;;;;;;;2.72;1.92;;;0.40;99.90;;;;;;4835675;29;20081;-65
2021/12/02 05:46:16;;;;;;;2.30;1.70;;;0.40;99.90;;;;;;4834343;29;20062;-65
2021/12/02 05:48:43;;;;;;;3.22;1.92;;;0.40;99.90;;;;;;4835041;29;20061;-64
2021/12/02 05:51:10;;;;;;;3.70;1.75;;;0.40;99.90;;;;;;4836964;29;20062;-65
2021/12/02 05:53:37;;;;;;;4.45;2.28;;;0.40;99.90;;;;;;4836934;29;20050;-64
2021/12/02 05:56:05;;;;;;;6.85;2.40;;;0.40;99.90;;;;;;4851565;29;20536;-67
2021/12/02 05:58:31;;;;;;;3.60;2.30;;;0.40;99.90;;;;;;4836183;29;20050;-68
2021/12/02 06:00:59;;;;;;;3.80;2.50;;;0.40;99.90;;;;;;4850979;29;20073;-64
2021/12/02 06:03:26;;;;;;;2.78;1.92;;;0.40;99.90;;;;;;4847506;29;20153;-71
2021/12/02 06:05:56;;;;;;;3.35;2.60;;;0.40;99.90;;;;;;4838711;29;20054;-69
2021/12/02 06:08:23;;;;;;;4.50;3.15;;;0.40;99.90;;;;;;4838091;29;20069;-65
2021/12/02 06:10:50;;;;;;;5.10;3.35;;;0.40;99.90;;;;;;4841653;29;20417;-63
2021/12/02 06:13:17;;;;;;;4.93;2.50;;;0.40;99.90;;;;;;4837330;29;20073;-64
2021/12/02 06:15:45;;;;;;;3.42;2.63;;;0.40;99.90;;;;;;4835860;29;20058;-64
2021/12/02 06:18:12;;;;;;;2.85;1.67;;;0.40;99.90;;;;;;4826034;29;20050;-65
2021/12/02 06:20:39;;;;;;;3.25;2.20;;;0.40;99.90;;;;;;4843414;29;20089;-64
2021/12/02 06:23:06;;;;;;;3.70;1.27;;;0.40;99.90;;;;;;4839461;29;20057;-67
2021/12/02 06:28:04;;;;;;;1.63;1.00;;;0.40;99.90;;;;;;4839407;29;20050;-64
2021/12/02 06:30:31;;;;;;;2.88;1.58;;;0.40;99.90;;;;;;4836181;29;20493;-70
2021/12/02 06:32:58;;;;;;;1.55;1.30;;;0.40;99.90;;;;;;4836915;29;20049;-66
2021/12/02 06:35:25;;;;;;;2.13;1.08;;;0.40;99.90;;;;;;4840692;29;20061;-66
2021/12/02 06:37:53;;;;;;;1.52;1.42;;;0.40;99.90;;;;;;4837716;29;20045;-65
2021/12/02 06:40:20;;;;;;;2.85;1.88;;;0.40;99.90;;;;;;4833032;29;20493;-70
2021/12/02 06:42:47;;;;;;;3.40;1.75;;;0.40;99.90;;;;;;4838907;29;20465;-66
2021/12/02 06:45:14;;;;;;;3.35;1.20;;;0.50;99.90;;;;;;4837750;29;20493;-69
2021/12/02 06:47:44;;;;;;;;;;;0.50;99.90;;;;;;4836722;29;20065;-65
2021/12/02 06:50:17;;;;;;;8.18;1.25;;;0.40;99.90;;;;;;4838162;29;20392;-65
2021/12/02 06:52:48;;;;;;;1.58;1.48;;;0.40;99.90;;;;;;4839113;29;20058;-64
2021/12/02 06:55:16;;;;;;;4.38;1.30;;;0.40;99.90;;;;;;4838750;29;20478;-66
2021/12/02 06:57:43;;;;;;;1.60;0.90;;;0.50;99.90;;;;;;4837871;29;20054;-71
2021/12/02 07:00:13;;;;;;;1.48;1.00;;;0.50;99.90;;;;;;4834734;29;20425;-67
2021/12/02 07:02:41;;;;;;;1.90;1.10;;;0.50;99.90;;;;;;4838241;29;20122;-63
2021/12/02 07:05:11;;;;;;;1.70;1.05;;;0.50;99.90;;;;;;4835243;29;20046;-66
2021/12/02 07:07:38;;;;;;;1.70;0.80;;;0.50;99.90;;;;;;4865895;29;20046;-64
2021/12/02 07:10:18;;;;;;;6.82;1.55;;;0.50;99.90;;;;;;4834835;29;20058;-73
2021/12/02 07:12:48;;;;;;;3.00;0.60;;;0.50;99.90;;;;;;4833206;29;20110;-66
2021/12/02 07:15:18;;;;;;;1.67;0.60;;;0.50;99.90;;;;;;4836066;29;20072;-68
2021/12/02 07:17:49;;;;;;;0.43;0.40;;;0.50;99.90;;;;;;4832896;29;20043;-66
2021/12/02 07:20:17;;;;;;;2.28;0.80;;;0.50;99.90;;;;;;4833644;29;20128;-70
2021/12/02 07:22:44;;;;;;;0.68;0.30;;;0.60;99.90;;;;;;4847829;29;20106;-65
2021/12/02 07:25:12;;;;;;;0.65;0.32;;;0.60;99.90;;;;;;4836433;29;20061;-65
2021/12/02 07:27:47;;;;;;;0.43;0.25;;;0.60;99.90;;;;;;4835002;29;20051;-68
2021/12/02 07:30:15;;;;;;;0.85;0.40;;;0.60;99.90;;;;;;4834021;29;20076;-64
2021/12/02 07:32:47;;;;;;;1.85;0.40;;;0.60;99.90;;;;;;4840576;29;20098;-64
2021/12/02 07:35:15;;;;;;;0.93;0.50;;;0.60;99.90;;;;;;4839823;29;20057;-65
2021/12/02 07:37:46;;;;;;;1.10;0.50;;;0.60;99.90;;;;;;4825174;29;20106;-71
2021/12/02 07:40:16;;;;;;;0.70;0.40;;;0.60;99.90;;;;;;4834057;29;20470;-65
2021/12/02 07:42:48;;;;;;;0.40;0.25;;;0.70;99.90;;;;;;4849518;29;20046;-68
2021/12/02 07:45:16;;;;;;;0.80;0.30;;;0.70;99.90;;;;;;4836926;29;20042;-68
2021/12/02 07:47:44;;;;;;;0.25;0.13;;;0.70;99.90;;;;;;4836307;29;20084;-65
2021/12/02 07:50:14;;;;;;;1.08;0.10;;;0.70;99.90;;;;;;4836128;29;20568;-64
2021/12/02 07:52:48;;;;;;;0.00;0.00;;;0.70;99.90;;;;;;4840558;29;20053;-67
2021/12/02 07:55:17;;;;;;;0.17;0.17;;;0.70;99.90;;;;;;4842744;29;20054;-70
2021/12/02 07:57:46;;;;;;;1.50;0.22;;;0.70;99.90;;;;;;4838399;29;20053;-64
2021/12/02 08:00:19;;;;;;;0.57;0.47;;;0.70;99.90;;;;;;4839471;29;20054;-68
2021/12/02 08:02:49;;;;;;;0.25;0.10;;;0.70;99.90;;;;;;4836554;29;20076;-69
2021/12/02 08:05:18;;;;;;;0.40;0.20;;;0.70;99.90;;;;;;4839926;29;20128;-68
2021/12/02 08:07:45;;;;;;;0.17;0.17;;;0.70;99.90;;;;;;4839601;29;20045;-66
2021/12/02 08:10:14;;;;;;;0.25;0.10;;;0.70;99.90;;;;;;4836560;29;20121;-70
2021/12/02 08:12:46;;;;;;;5.18;0.22;;;0.70;99.90;;;;;;4836478;29;20048;-64
2021/12/02 08:15:15;;;;;;;0.60;0.10;;;0.70;99.90;;;;;;4842587;29;20042;-64
2021/12/02 08:17:43;;;;;;;1.50;0.40;;;0.70;99.90;;;;;;4840387;29;20118;-71
2021/12/02 08:20:10;;;;;;;2.28;0.32;;;0.70;99.90;;;;;;4839307;29;20068;-68
2021/12/02 08:22:38;;;;;;;0.60;0.43;;;0.70;99.90;;;;;;4844772;29;20050;-66
2021/12/02 08:25:05;;;;;;;1.70;0.15;;;0.70;99.90;;;;;;4840535;29;20065;-69
2021/12/02 08:27:32;;;;;;;2.05;0.30;;;0.70;99.90;;;;;;4841117;29;20109;-65
2021/12/02 08:30:02;;;;;;;0.57;0.20;;;0.70;99.90;;;;;;4838853;29;20061;-65
2021/12/02 08:32:30;;;;;;;0.38;0.28;;;0.70;99.90;;;;;;4838431;29;20046;-69
2021/12/02 08:34:59;;;;;;;3.38;0.43;;;0.70;99.90;;;;;;4845423;29;20083;-65
2021/12/02 08:37:29;;;;;;;3.22;0.63;;;0.70;99.90;;;;;;4844013;29;20121;-67
2021/12/02 08:40:00;;;;;;;7.57;0.88;;;0.60;99.90;;;;;;4842865;29;20057;-69
2021/12/02 08:42:31;;;;;;;2.70;0.70;;;0.70;99.90;;;;;;4838530;29;20073;-68
2021/12/02 08:44:59;;;;;;;1.60;0.50;;;0.70;99.90;;;;;;4844325;29;20141;-64
2021/12/02 08:47:28;;;;;;;4.60;0.85;;;0.70;99.90;;;;;;4840840;29;20050;-67
2021/12/02 08:49:56;;;;;;;1.27;0.50;;;0.70;99.90;;;;;;4841851;29;20053;-65
2021/12/02 08:52:26;;;;;;;0.80;0.20;;;0.70;99.90;;;;;;4844571;29;20045;-65
2021/12/02 08:54:54;;;;;;;0.73;0.30;;;0.70;99.90;;;;;;4839292;29;20050;-66
2021/12/02 08:57:41;;;;;;;1.38;0.30;;;0.70;99.90;;;;;;4851071;29;20130;-68
2021/12/02 09:00:12;;;;;;;1.90;0.38;;;0.70;99.90;;;;;;4840696;29;20069;-68
2021/12/02 09:02:39;;;;;;;0.70;0.28;;;0.70;99.90;;;;;;4839874;29;20496;-64
2021/12/02 09:05:07;;;;;;;0.93;0.28;;;0.70;99.90;;;;;;4841999;29;20536;-71
2021/12/02 09:07:35;;;;;;;0.20;0.20;;;0.70;99.90;;;;;;4846331;29;20809;-69
2021/12/02 09:10:07;;;;;;;0.70;0.45;;;0.70;99.90;;;;;;4842652;29;20046;-68
2021/12/02 09:12:34;;;;;;;0.60;0.40;;;0.70;99.90;;;;;;4836660;29;20046;-65
2021/12/02 09:15:03;;;;;;;0.47;0.38;;;0.70;99.90;;;;;;4843945;29;20110;-65
2021/12/02 09:17:31;;;;;;;0.45;0.20;;;0.70;99.90;;;;;;4839965;29;20735;-64
2021/12/02 09:19:58;;;;;;;1.02;0.30;;;0.70;99.90;;;;;;4838871;29;20054;-65
2021/12/02 09:22:25;;;;;;;0.45;0.30;;;0.70;99.90;;;;;;4844938;29;20417;-66
2021/12/02 09:24:52;;;;;;;0.57;0.57;;;0.70;99.90;;;;;;4835163;29;20065;-63
2021/12/02 09:27:19;;;;;;;0.43;0.17;;;0.60;99.90;;;;;;4835422;29;20106;-67
2021/12/02 09:29:46;;;;;;;1.55;0.30;;;0.60;99.90;;;;;;4839676;29;20046;-66
2021/12/02 09:32:13;;;;;;;2.38;0.43;;;0.60;99.90;;;;;;4834697;29;20107;-64
2021/12/02 09:34:40;;;;;;;0.80;0.35;;;0.60;99.90;;;;;;4843426;29;20070;-64
2021/12/02 09:37:08;;;;;;;0.20;0.20;;;0.60;99.90;;;;;;4839930;29;20046;-65
2021/12/02 09:39:35;;;;;;;1.15;0.30;;;0.60;99.90;;;;;;4841399;29;20066;-66
2021/12/02 09:42:05;;;;;;;0.75;0.10;;;0.60;99.90;;;;;;4842127;29;20103;-74
2021/12/02 09:44:55;;;;;;;0.38;0.35;;;0.60;99.90;;;;;;4841805;29;20144;-64
2021/12/02 09:47:22;;;;;;;0.73;0.20;;;0.60;99.90;;;;;;4839330;29;20113;-64
2021/12/02 09:49:50;;;;;;;4.68;0.85;;;0.60;99.90;;;;;;4838300;29;20174;-64
2021/12/02 09:52:19;;;;;;;1.23;0.30;;;0.60;99.90;;;;;;4842249;29;20128;-65
2021/12/02 09:54:58;;;;;;;1.42;0.30;;;0.70;99.90;;;;;;4839941;29;20057;-68
2021/12/02 09:57:28;;;;;;;2.45;0.30;;;0.70;99.90;;;;;;4845936;29;20053;-67
2021/12/02 09:59:56;;;;;;;1.02;0.73;;;0.60;99.90;;;;;;4838066;29;20132;-69
2021/12/02 10:02:24;;;;;;;0.55;0.47;;;0.60;99.90;;;;;;4867975;29;20058;-67
2021/12/02 10:04:57;;;;;;;1.48;0.28;;;0.60;99.90;;;;;;4843907;29;20054;-72
2021/12/02 10:10:35;;;;;;;1.52;0.52;;;0.60;99.90;;;;;;4840423;29;20060;-66
2021/12/02 10:16:05;;;;;;;1.43;0.30;;;0.60;99.90;;;;;;4842322;29;20061;-66
2021/12/02 10:19:07;;;;;;;0.20;0.10;;;0.70;99.90;;;;;;4834782;29;20285;-69
2021/12/02 10:21:40;;;;;;;0.60;0.30;;;0.70;99.90;;;;;;4842051;29;20061;-73
2021/12/02 10:24:11;;;;;;;1.45;0.77;;;0.60;99.90;;;;;;4836731;29;20098;-70
2021/12/02 10:26:57;;;;;;;;;;;0.70;99.90;;;;;;4836237;29;20046;-67
2021/12/02 10:29:46;;;;;;;0.63;0.30;;;0.70;99.90;;;;;;4837001;29;19929;-67
2021/12/02 10:32:24;;;;;;;1.33;0.60;;;0.70;99.90;;;;;;4834148;29;20078;-68
2021/12/02 10:35:02;;;;;;;0.70;0.32;;;0.70;99.90;;;;;;4839279;29;20057;-64
2021/12/02 10:37:35;;;;;;;0.85;0.20;;;0.60;99.90;;;;;;4836074;29;20065;-64
2021/12/02 10:40:08;;;;;;;2.35;0.65;;;0.70;99.90;;;;;;4851309;29;20042;-65
2021/12/02 10:42:38;;;;;;;1.02;0.90;;;0.70;99.90;;;;;;4835236;29;20401;-65
2021/12/02 10:45:07;;;;;;;0.30;0.30;;;0.60;99.90;;;;;;4847894;29;20054;-67
2021/12/02 10:47:34;;;;;;;0.75;0.73;;;0.60;99.90;;;;;;4835660;29;20104;-64
2021/12/02 10:50:09;;;;;;;1.45;0.80;;;0.60;99.90;;;;;;4835855;29;20042;-67
2021/12/02 10:52:37;;;;;;;2.42;0.45;;;0.60;99.90;;;;;;4834264;29;20057;-65
2021/12/02 10:55:11;;;;;;;0.30;0.30;;;0.60;99.90;;;;;;4836278;29;20054;-68
2021/12/02 10:57:44;;;;;;;1.92;1.25;;;0.60;99.90;;;;;;4836514;29;20083;-70
2021/12/02 11:00:20;;;;;;;0.88;0.40;;;0.50;99.90;;;;;;4834735;29;20049;-64
2021/12/02 11:02:49;;;;;;;3.50;0.50;;;0.60;99.90;;;;;;4839271;29;20053;-69
2021/12/02 11:05:29;;;;;;;0.63;0.30;;;0.60;99.90;;;;;;4837113;29;20080;-67
2021/12/02 11:08:16;;;;;;;0.68;0.50;;;0.50;99.90;;;;;;4838653;29;20060;-66
2021/12/02 11:10:50;;;;;;;0.88;0.50;;;0.50;99.90;;;;;;4835945;29;20046;-65
2021/12/02 11:13:26;;;;;;;2.63;0.47;;;0.50;99.90;;;;;;4835725;29;20102;-67
2021/12/02 11:15:54;;;;;;;0.60;0.57;;;0.50;99.90;;;;;;4836481;29;20126;-66
2021/12/02 11:18:22;;;;;;;0.82;0.73;;;0.40;99.90;;;;;;4843234;29;20054;-65
2021/12/02 11:20:59;;;;;;;0.40;0.30;;;0.50;99.90;;;;;;4838832;29;20065;-65
2021/12/02 11:23:43;;;;;;;1.48;0.45;;;0.50;99.90;;;;;;4839071;29;20074;-63
2021/12/02 11:26:17;;;;;;;0.15;0.15;;;0.50;99.90;;;;;;4839981;29;20516;-64
2021/12/02 11:28:45;;;;;;;0.85;0.32;;;0.50;99.90;;;;;;4834853;29;20058;-65
2021/12/02 11:31:16;;;;;;;2.05;0.40;;;0.50;99.90;;;;;;4838942;29;20309;-71
2021/12/02 11:33:45;;;;;;;0.70;0.25;;;0.50;99.90;;;;;;4844180;29;20045;-68
2021/12/02 11:36:28;;;;;;;3.10;0.50;;;0.50;99.90;;;;;;4836847;29;20057;-65
2021/12/02 11:38:59;;;;;;;0.57;0.38;;;0.50;99.90;;;;;;4835337;29;20106;-64
2021/12/02 11:41:27;;;;;;;1.85;0.35;;;0.50;99.90;;;;;;4839595;29;20411;-64
2021/12/02 11:43:55;;;;;;;3.13;0.65;;;0.50;99.90;;;;;;4843096;29;20459;-65
2021/12/02 11:46:22;;;;;;;1.27;0.70;;;0.50;99.90;;;;;;4835401;29;20050;-66
2021/12/02 11:48:50;;;;;;;1.67;0.50;;;0.40;99.90;;;;;;4837833;29;20065;-64
2021/12/02 11:51:20;;;;;;;0.40;0.30;;;0.50;99.90;;;;;;4842023;29;20065;-66
2021/12/02 11:53:48;;;;;;;2.33;0.60;;;0.50;99.90;;;;;;4840345;29;20110;-73
2021/12/02 11:56:21;;;;;;;1.63;0.80;;;0.40;99.90;;;;;;4837518;29;20058;-64
2021/12/02 11:58:50;;;;;;;5.38;1.00;;;0.50;99.90;;;;;;4829610;29;20042;-67
2021/12/02 12:01:24;;;;;;;2.08;0.50;;;0.40;99.90;;;;;;4834504;29;20485;-64
2021/12/02 12:03:55;;;;;;;0.90;0.80;;;0.50;99.90;;;;;;4827424;29;20057;-78
2021/12/02 12:06:29;;;;;;;0.82;0.30;;;0.50;99.90;;;;;;4851214;29;20048;-65
2021/12/02 12:08:59;;;;;;;1.08;0.30;;;0.50;99.90;;;;;;4853430;29;20057;-65
2021/12/02 12:11:31;;;;;;;1.33;0.77;;;0.50;99.90;;;;;;4839851;29;20149;-75
2021/12/02 12:14:10;;;;;;;2.25;0.77;;;0.50;99.90;;;;;;4835549;29;20058;-65
2021/12/02 12:16:38;;;;;;;1.98;0.65;;;0.50;99.90;;;;;;4837371;29;20081;-69
2021/12/02 12:19:26;;;;;;;1.35;0.50;;;0.60;99.90;;;;;;4837697;29;20050;-69
2021/12/02 12:21:54;;;;;;;2.03;0.63;;;0.60;99.90;;;;;;4839623;29;20054;-65
2021/12/02 12:24:41;;;;;;;0.63;0.35;;;0.50;99.90;;;;;;4834657;29;20574;-64
2021/12/02 12:27:24;;;;;;;0.65;0.50;;;0.50;99.90;;;;;;4842241;29;20049;-66
2021/12/02 12:30:03;;;;;;;0.95;0.65;;;0.50;99.90;;;;;;4837708;29;20079;-66
2021/12/02 12:35:32;;;;;;;0.63;0.47;;;0.50;99.90;;;;;;4838796;29;20473;-70
2021/12/02 12:38:02;;;;;;;0.85;0.52;;;0.40;99.90;;;;;;4841583;29;20050;-64
2021/12/02 12:40:40;;;;;;;2.83;0.50;;;0.40;99.90;;;;;;4833692;29;20065;-73
2021/12/02 12:43:07;;;;;;;1.52;0.75;;;0.40;99.90;;;;;;4838194;29;20042;-65
2021/12/02 12:45:39;;;;;;;1.38;0.93;;;0.40;99.90;;;;;;4839877;29;20058;-65
2021/12/02 12:48:09;;;;;;;1.88;0.50;;;0.40;99.90;;;;;;4836703;29;20971;-65
2021/12/02 12:50:39;;;;;;;1.17;0.60;;;0.40;99.90;;;;;;4834130;29;20058;-65
2021/12/02 12:53:13;;;;;;;0.95;0.93;;;0.40;99.90;;;;;;4841787;29;20053;-72
2021/12/02 12:55:55;;;;;;;3.88;0.63;;;0.40;99.90;;;;;;4838214;29;20118;-64
2021/12/02 12:58:37;;;;;;;2.05;0.38;;;0.40;99.90;;;;;;4838352;29;20054;-65
2021/12/02 13:01:19;;;;;;;1.23;1.13;;;0.40;99.90;;;;;;4837996;29;20066;-64
2021/12/02 13:04:06;;;;;;;3.30;0.82;;;0.40;99.90;;;;;;4840422;29;20132;-73
2021/12/02 13:06:47;;;;;;;1.92;0.75;;;0.40;99.90;;;;;;4827065;29;20129;-64
2021/12/02 13:09:40;;;;;;;2.13;0.80;;;0.40;99.90;;;;;;4840097;29;20140;-64
2021/12/02 13:12:12;;;;;;;2.03;0.60;;;0.30;99.90;;;;;;4840001;29;20053;-68
2021/12/02 13:14:41;;;;;;;1.90;0.77;;;0.30;99.90;;;;;;4843213;29;20141;-77
2021/12/02 13:17:44;;;;;;;0.93;0.50;;;0.30;99.90;;;;;;4839818;29;20061;-68
2021/12/02 13:20:40;;;;;;;1.77;0.50;;;0.30;99.90;;;;;;4838336;29;20053;-65
2021/12/02 13:23:13;;;;;;;3.65;1.70;;;0.30;99.90;;;;;;4838776;29;20042;-67
2021/12/02 13:25:54;;;;;;;4.05;0.82;;;0.30;99.90;;;;;;4832783;29;20405;-64
2021/12/02 13:28:27;;;;;;;0.88;0.40;;;0.30;99.90;;;;;;4832492;29;20138;-71
2021/12/02 13:31:04;;;;;;;1.15;0.60;;;0.30;99.90;;;;;;4836441;29;20081;-64
2021/12/02 13:33:32;;;;;;;1.08;0.60;;;0.30;99.90;;;;;;4837374;29;20461;-67
2021/12/02 13:36:00;;;;;;;0.77;0.65;;;0.20;99.90;;;;;;4844251;29;20046;-67
2021/12/02 13:38:27;;;;;;;1.02;0.43;;;0.20;99.90;;;;;;4840762;29;20590;-69
2021/12/02 13:40:54;;;;;;;1.27;0.52;;;0.20;99.90;;;;;;4838759;29;20094;-66
2021/12/02 13:43:21;;;;;;;1.65;0.30;;;0.20;99.90;;;;;;4840183;29;20105;-66
2021/12/02 13:45:49;;;;;;;1.65;0.20;;;0.10;99.90;;;;;;4838659;29;20485;-64